sensor_id;sensor_type;location;lat;lon;timestamp;P1;durP1;ratioP1;P2;durP2;ratioP2
3274;SDS011;1649;53.672;10.064;2022-10-15T00:00:39;26.20;;;15.37;;
3274;SDS011;1649;53.672;10.064;2022-10-15T00:03:05;26.27;;;16.53;;
3274;SDS011;1649;53.672;10.064;2022-10-15T00:05:31;26.00;;;16.83;;
3274;SDS011;1649;53.672;10.064;2022-10-15T00:07:56;29.40;;;17.87;;
3274;SDS011;1649;53.672;10.064;2022-10-15T00:10:22;26.93;;;16.80;;
3274;SDS011;1649;53.672;10.064;2022-10-15T00:12:48;25.60;;;16.73;;
3274;SDS011;1649;53.672;10.064;2022-10-15T00:15:14;25.20;;;16.10;;
3274;SDS011;1649;53.672;10.064;2022-10-15T00:17:40;26.60;;;17.43;;
3274;SDS011;1649;53.672;10.064;2022-10-15T00:20:07;24.33;;;17.03;;
3274;SDS011;1649;53.672;10.064;2022-10-15T00:22:34;29.50;;;18.07;;
3274;SDS011;1649;53.672;10.064;2022-10-15T00:25:00;29.77;;;17.13;;
3274;SDS011;1649;53.672;10.064;2022-10-15T00:27:25;30.33;;;17.87;;
3274;SDS011;1649;53.672;10.064;2022-10-15T00:29:51;32.57;;;17.90;;
3274;SDS011;1649;53.672;10.064;2022-10-15T00:32:16;32.40;;;18.77;;
3274;SDS011;1649;53.672;10.064;2022-10-15T00:34:42;28.87;;;17.93;;
3274;SDS011;1649;53.672;10.064;2022-10-15T00:37:08;32.37;;;18.03;;
3274;SDS011;1649;53.672;10.064;2022-10-15T00:39:34;27.67;;;17.00;;
3274;SDS011;1649;53.672;10.064;2022-10-15T00:42:00;38.70;;;19.20;;
3274;SDS011;1649;53.672;10.064;2022-10-15T00:49:44;31.90;;;18.80;;
3274;SDS011;1649;53.672;10.064;2022-10-15T00:52:29;35.17;;;19.67;;
3274;SDS011;1649;53.672;10.064;2022-10-15T00:55:21;35.60;;;19.60;;
3274;SDS011;1649;53.672;10.064;2022-10-15T00:57:52;30.73;;;19.80;;
3274;SDS011;1649;53.672;10.064;2022-10-15T01:00:18;32.10;;;20.03;;
3274;SDS011;1649;53.672;10.064;2022-10-15T01:02:44;31.67;;;20.00;;
3274;SDS011;1649;53.672;10.064;2022-10-15T01:05:10;37.60;;;19.50;;
3274;SDS011;1649;53.672;10.064;2022-10-15T01:07:37;38.70;;;22.13;;
3274;SDS011;1649;53.672;10.064;2022-10-15T01:10:03;34.13;;;20.20;;
3274;SDS011;1649;53.672;10.064;2022-10-15T01:12:42;37.23;;;20.80;;
3274;SDS011;1649;53.672;10.064;2022-10-15T01:15:18;42.83;;;21.30;;
3274;SDS011;1649;53.672;10.064;2022-10-15T01:18:15;42.90;;;22.57;;
3274;SDS011;1649;53.672;10.064;2022-10-15T01:40:32;50.47;;;25.03;;
3274;SDS011;1649;53.672;10.064;2022-10-15T01:43:10;51.43;;;25.40;;
3274;SDS011;1649;53.672;10.064;2022-10-15T01:45:40;50.57;;;25.43;;
3274;SDS011;1649;53.672;10.064;2022-10-15T01:48:11;48.53;;;25.33;;
3274;SDS011;1649;53.672;10.064;2022-10-15T01:50:42;45.90;;;24.00;;
3274;SDS011;1649;53.672;10.064;2022-10-15T01:53:10;44.30;;;23.07;;
3274;SDS011;1649;53.672;10.064;2022-10-15T01:55:40;58.53;;;26.93;;
3274;SDS011;1649;53.672;10.064;2022-10-15T01:58:07;49.80;;;26.13;;
3274;SDS011;1649;53.672;10.064;2022-10-15T02:00:35;53.87;;;25.73;;
3274;SDS011;1649;53.672;10.064;2022-10-15T02:03:00;52.77;;;25.57;;
3274;SDS011;1649;53.672;10.064;2022-10-15T02:05:31;52.77;;;26.30;;
3274;SDS011;1649;53.672;10.064;2022-10-15T02:08:25;54.37;;;25.10;;
3274;SDS011;1649;53.672;10.064;2022-10-15T02:11:06;55.47;;;24.93;;
3274;SDS011;1649;53.672;10.064;2022-10-15T02:16:37;51.40;;;25.70;;
3274;SDS011;1649;53.672;10.064;2022-10-15T02:19:11;50.17;;;23.80;;
3274;SDS011;1649;53.672;10.064;2022-10-15T02:21:46;46.70;;;22.67;;
3274;SDS011;1649;53.672;10.064;2022-10-15T02:24:33;53.30;;;24.00;;
3274;SDS011;1649;53.672;10.064;2022-10-15T02:27:03;56.53;;;25.57;;
3274;SDS011;1649;53.672;10.064;2022-10-15T02:29:31;63.17;;;28.33;;
3274;SDS011;1649;53.672;10.064;2022-10-15T02:31:59;58.10;;;26.87;;
3274;SDS011;1649;53.672;10.064;2022-10-15T02:34:27;57.50;;;27.27;;
3274;SDS011;1649;53.672;10.064;2022-10-15T02:36:56;62.63;;;27.10;;
3274;SDS011;1649;53.672;10.064;2022-10-15T02:39:22;62.97;;;29.40;;
3274;SDS011;1649;53.672;10.064;2022-10-15T02:41:52;58.30;;;26.53;;
3274;SDS011;1649;53.672;10.064;2022-10-15T02:44:19;57.23;;;26.30;;
3274;SDS011;1649;53.672;10.064;2022-10-15T02:46:45;57.17;;;27.40;;
3274;SDS011;1649;53.672;10.064;2022-10-15T02:49:10;66.70;;;28.17;;
3274;SDS011;1649;53.672;10.064;2022-10-15T02:51:36;67.80;;;30.07;;
3274;SDS011;1649;53.672;10.064;2022-10-15T02:54:03;65.90;;;28.07;;
3274;SDS011;1649;53.672;10.064;2022-10-15T02:56:29;73.40;;;30.10;;
3274;SDS011;1649;53.672;10.064;2022-10-15T02:58:55;62.30;;;27.60;;
3274;SDS011;1649;53.672;10.064;2022-10-15T03:01:21;66.23;;;27.70;;
3274;SDS011;1649;53.672;10.064;2022-10-15T03:03:46;72.53;;;30.90;;
3274;SDS011;1649;53.672;10.064;2022-10-15T03:06:12;59.97;;;28.37;;
3274;SDS011;1649;53.672;10.064;2022-10-15T03:08:38;63.87;;;29.50;;
3274;SDS011;1649;53.672;10.064;2022-10-15T03:11:03;59.77;;;26.23;;
3274;SDS011;1649;53.672;10.064;2022-10-15T03:13:29;69.70;;;29.03;;
3274;SDS011;1649;53.672;10.064;2022-10-15T03:15:54;64.33;;;29.90;;
3274;SDS011;1649;53.672;10.064;2022-10-15T03:18:20;65.57;;;28.07;;
3274;SDS011;1649;53.672;10.064;2022-10-15T03:20:53;63.93;;;28.97;;
3274;SDS011;1649;53.672;10.064;2022-10-15T03:23:19;67.93;;;27.70;;
3274;SDS011;1649;53.672;10.064;2022-10-15T03:25:45;59.13;;;28.07;;
3274;SDS011;1649;53.672;10.064;2022-10-15T03:28:11;64.40;;;28.07;;
3274;SDS011;1649;53.672;10.064;2022-10-15T03:30:36;65.70;;;29.50;;
3274;SDS011;1649;53.672;10.064;2022-10-15T03:33:02;70.03;;;30.70;;
3274;SDS011;1649;53.672;10.064;2022-10-15T03:35:27;65.50;;;29.27;;
3274;SDS011;1649;53.672;10.064;2022-10-15T03:37:53;67.10;;;29.90;;
3274;SDS011;1649;53.672;10.064;2022-10-15T03:40:18;69.33;;;29.40;;
3274;SDS011;1649;53.672;10.064;2022-10-15T03:42:48;72.23;;;31.43;;
3274;SDS011;1649;53.672;10.064;2022-10-15T03:45:14;64.23;;;29.60;;
3274;SDS011;1649;53.672;10.064;2022-10-15T03:47:40;65.03;;;29.17;;
3274;SDS011;1649;53.672;10.064;2022-10-15T03:50:05;59.87;;;27.97;;
3274;SDS011;1649;53.672;10.064;2022-10-15T03:52:31;67.07;;;30.53;;
3274;SDS011;1649;53.672;10.064;2022-10-15T03:54:56;65.60;;;30.70;;
3274;SDS011;1649;53.672;10.064;2022-10-15T03:57:22;64.20;;;28.90;;
3274;SDS011;1649;53.672;10.064;2022-10-15T03:59:47;61.63;;;28.20;;
3274;SDS011;1649;53.672;10.064;2022-10-15T04:02:13;51.50;;;25.37;;
3274;SDS011;1649;53.672;10.064;2022-10-15T04:04:38;57.30;;;26.33;;
3274;SDS011;1649;53.672;10.064;2022-10-15T04:07:04;61.60;;;27.43;;
3274;SDS011;1649;53.672;10.064;2022-10-15T04:09:30;52.57;;;25.57;;
3274;SDS011;1649;53.672;10.064;2022-10-15T04:11:55;55.10;;;25.90;;
3274;SDS011;1649;53.672;10.064;2022-10-15T04:14:21;63.27;;;27.20;;
3274;SDS011;1649;53.672;10.064;2022-10-15T04:16:46;47.47;;;24.03;;
3274;SDS011;1649;53.672;10.064;2022-10-15T04:19:12;56.40;;;25.47;;
3274;SDS011;1649;53.672;10.064;2022-10-15T04:21:37;51.33;;;24.63;;
3274;SDS011;1649;53.672;10.064;2022-10-15T04:24:03;49.40;;;25.83;;
3274;SDS011;1649;53.672;10.064;2022-10-15T04:26:28;57.53;;;26.07;;
3274;SDS011;1649;53.672;10.064;2022-10-15T04:28:54;51.70;;;25.33;;
3274;SDS011;1649;53.672;10.064;2022-10-15T04:31:19;58.80;;;25.60;;
3274;SDS011;1649;53.672;10.064;2022-10-15T04:33:46;60.47;;;26.87;;
3274;SDS011;1649;53.672;10.064;2022-10-15T04:36:13;55.80;;;23.67;;
3274;SDS011;1649;53.672;10.064;2022-10-15T04:38:38;54.57;;;25.27;;
3274;SDS011;1649;53.672;10.064;2022-10-15T04:41:07;56.67;;;24.80;;
3274;SDS011;1649;53.672;10.064;2022-10-15T04:43:34;61.27;;;27.07;;
3274;SDS011;1649;53.672;10.064;2022-10-15T04:46:01;51.07;;;23.77;;
3274;SDS011;1649;53.672;10.064;2022-10-15T04:48:28;71.17;;;26.60;;
3274;SDS011;1649;53.672;10.064;2022-10-15T04:50:55;48.50;;;23.30;;
3274;SDS011;1649;53.672;10.064;2022-10-15T04:53:26;53.20;;;24.40;;
3274;SDS011;1649;53.672;10.064;2022-10-15T04:55:52;52.97;;;24.30;;
3274;SDS011;1649;53.672;10.064;2022-10-15T04:58:17;58.23;;;25.30;;
3274;SDS011;1649;53.672;10.064;2022-10-15T05:00:43;58.17;;;26.17;;
3274;SDS011;1649;53.672;10.064;2022-10-15T05:03:08;51.57;;;24.07;;
3274;SDS011;1649;53.672;10.064;2022-10-15T05:05:34;57.93;;;24.27;;
3274;SDS011;1649;53.672;10.064;2022-10-15T05:08:03;55.70;;;25.60;;
3274;SDS011;1649;53.672;10.064;2022-10-15T05:10:29;55.63;;;26.70;;
3274;SDS011;1649;53.672;10.064;2022-10-15T05:12:55;58.77;;;25.80;;
3274;SDS011;1649;53.672;10.064;2022-10-15T05:15:21;54.50;;;25.83;;
3274;SDS011;1649;53.672;10.064;2022-10-15T05:17:46;57.70;;;24.90;;
3274;SDS011;1649;53.672;10.064;2022-10-15T05:20:12;57.60;;;25.70;;
3274;SDS011;1649;53.672;10.064;2022-10-15T05:22:37;56.50;;;26.30;;
3274;SDS011;1649;53.672;10.064;2022-10-15T05:25:03;62.83;;;25.37;;
3274;SDS011;1649;53.672;10.064;2022-10-15T05:27:29;65.97;;;27.20;;
3274;SDS011;1649;53.672;10.064;2022-10-15T05:29:54;59.77;;;28.93;;
3274;SDS011;1649;53.672;10.064;2022-10-15T05:32:19;61.73;;;26.80;;
3274;SDS011;1649;53.672;10.064;2022-10-15T05:34:45;60.40;;;26.40;;
3274;SDS011;1649;53.672;10.064;2022-10-15T05:37:11;64.43;;;26.53;;
3274;SDS011;1649;53.672;10.064;2022-10-15T05:39:36;64.03;;;26.63;;
3274;SDS011;1649;53.672;10.064;2022-10-15T05:42:02;57.43;;;26.43;;
3274;SDS011;1649;53.672;10.064;2022-10-15T05:44:27;71.67;;;26.77;;
3274;SDS011;1649;53.672;10.064;2022-10-15T05:46:53;63.83;;;26.67;;
3274;SDS011;1649;53.672;10.064;2022-10-15T05:49:18;61.33;;;26.10;;
3274;SDS011;1649;53.672;10.064;2022-10-15T05:51:44;64.53;;;26.30;;
3274;SDS011;1649;53.672;10.064;2022-10-15T05:54:09;72.90;;;29.23;;
3274;SDS011;1649;53.672;10.064;2022-10-15T05:56:35;69.17;;;27.67;;
3274;SDS011;1649;53.672;10.064;2022-10-15T05:59:00;79.03;;;27.20;;
3274;SDS011;1649;53.672;10.064;2022-10-15T06:01:27;75.20;;;28.10;;
3274;SDS011;1649;53.672;10.064;2022-10-15T06:03:52;68.13;;;27.53;;
3274;SDS011;1649;53.672;10.064;2022-10-15T06:06:21;64.80;;;27.90;;
3274;SDS011;1649;53.672;10.064;2022-10-15T06:08:50;68.43;;;26.27;;
3274;SDS011;1649;53.672;10.064;2022-10-15T06:11:16;68.40;;;26.70;;
3274;SDS011;1649;53.672;10.064;2022-10-15T06:13:42;64.40;;;27.37;;
3274;SDS011;1649;53.672;10.064;2022-10-15T06:16:09;75.47;;;28.90;;
3274;SDS011;1649;53.672;10.064;2022-10-15T06:18:35;71.00;;;28.27;;
3274;SDS011;1649;53.672;10.064;2022-10-15T06:21:02;69.20;;;28.10;;
3274;SDS011;1649;53.672;10.064;2022-10-15T06:23:28;61.57;;;26.50;;
3274;SDS011;1649;53.672;10.064;2022-10-15T06:25:54;69.00;;;27.13;;
3274;SDS011;1649;53.672;10.064;2022-10-15T06:28:20;72.60;;;29.57;;
3274;SDS011;1649;53.672;10.064;2022-10-15T06:30:45;69.33;;;27.93;;
3274;SDS011;1649;53.672;10.064;2022-10-15T06:33:11;61.53;;;26.83;;
3274;SDS011;1649;53.672;10.064;2022-10-15T06:35:36;68.67;;;26.60;;
3274;SDS011;1649;53.672;10.064;2022-10-15T06:38:02;60.87;;;27.60;;
3274;SDS011;1649;53.672;10.064;2022-10-15T06:40:29;69.77;;;28.37;;
3274;SDS011;1649;53.672;10.064;2022-10-15T06:43:02;66.17;;;29.47;;
3274;SDS011;1649;53.672;10.064;2022-10-15T06:45:28;70.00;;;27.70;;
3274;SDS011;1649;53.672;10.064;2022-10-15T06:47:54;83.90;;;29.90;;
3274;SDS011;1649;53.672;10.064;2022-10-15T06:50:19;74.90;;;29.60;;
3274;SDS011;1649;53.672;10.064;2022-10-15T06:52:45;71.90;;;28.20;;
3274;SDS011;1649;53.672;10.064;2022-10-15T06:55:10;70.27;;;30.30;;
3274;SDS011;1649;53.672;10.064;2022-10-15T06:57:35;66.63;;;28.37;;
3274;SDS011;1649;53.672;10.064;2022-10-15T07:00:01;67.00;;;29.33;;
3274;SDS011;1649;53.672;10.064;2022-10-15T07:02:27;76.97;;;29.53;;
3274;SDS011;1649;53.672;10.064;2022-10-15T07:04:53;74.43;;;28.03;;
3274;SDS011;1649;53.672;10.064;2022-10-15T07:07:19;69.97;;;29.90;;
3274;SDS011;1649;53.672;10.064;2022-10-15T07:09:44;68.43;;;28.67;;
3274;SDS011;1649;53.672;10.064;2022-10-15T07:12:11;71.00;;;31.07;;
3274;SDS011;1649;53.672;10.064;2022-10-15T07:14:37;69.50;;;28.17;;
3274;SDS011;1649;53.672;10.064;2022-10-15T07:17:02;71.10;;;27.27;;
3274;SDS011;1649;53.672;10.064;2022-10-15T07:19:28;60.00;;;26.30;;
3274;SDS011;1649;53.672;10.064;2022-10-15T07:21:53;65.60;;;29.10;;
3274;SDS011;1649;53.672;10.064;2022-10-15T07:24:19;62.50;;;26.57;;
3274;SDS011;1649;53.672;10.064;2022-10-15T07:26:47;68.00;;;28.77;;
3274;SDS011;1649;53.672;10.064;2022-10-15T07:29:13;61.40;;;28.70;;
3274;SDS011;1649;53.672;10.064;2022-10-15T07:31:38;59.33;;;27.43;;
3274;SDS011;1649;53.672;10.064;2022-10-15T07:34:04;62.23;;;27.27;;
3274;SDS011;1649;53.672;10.064;2022-10-15T07:36:30;59.93;;;28.47;;
3274;SDS011;1649;53.672;10.064;2022-10-15T07:38:55;67.63;;;29.17;;
3274;SDS011;1649;53.672;10.064;2022-10-15T07:41:21;63.07;;;28.30;;
3274;SDS011;1649;53.672;10.064;2022-10-15T07:43:47;56.60;;;25.60;;
3274;SDS011;1649;53.672;10.064;2022-10-15T07:46:15;51.10;;;23.83;;
3274;SDS011;1649;53.672;10.064;2022-10-15T07:48:40;53.60;;;25.87;;
3274;SDS011;1649;53.672;10.064;2022-10-15T07:51:06;55.33;;;25.57;;
3274;SDS011;1649;53.672;10.064;2022-10-15T07:53:32;60.00;;;26.03;;
3274;SDS011;1649;53.672;10.064;2022-10-15T07:55:58;55.90;;;24.87;;
3274;SDS011;1649;53.672;10.064;2022-10-15T07:58:25;60.53;;;26.47;;
3274;SDS011;1649;53.672;10.064;2022-10-15T08:00:50;51.80;;;25.00;;
3274;SDS011;1649;53.672;10.064;2022-10-15T08:03:16;54.03;;;26.37;;
3274;SDS011;1649;53.672;10.064;2022-10-15T08:05:41;55.00;;;25.13;;
3274;SDS011;1649;53.672;10.064;2022-10-15T08:08:07;52.57;;;24.17;;
3274;SDS011;1649;53.672;10.064;2022-10-15T08:10:32;51.10;;;24.67;;
3274;SDS011;1649;53.672;10.064;2022-10-15T08:13:00;51.90;;;25.70;;
3274;SDS011;1649;53.672;10.064;2022-10-15T08:15:25;49.87;;;24.70;;
3274;SDS011;1649;53.672;10.064;2022-10-15T08:17:51;50.90;;;25.23;;
3274;SDS011;1649;53.672;10.064;2022-10-15T08:20:16;49.73;;;26.10;;
3274;SDS011;1649;53.672;10.064;2022-10-15T08:22:42;42.27;;;24.00;;
3274;SDS011;1649;53.672;10.064;2022-10-15T08:25:07;45.37;;;24.43;;
3274;SDS011;1649;53.672;10.064;2022-10-15T08:27:33;44.07;;;27.40;;
3274;SDS011;1649;53.672;10.064;2022-10-15T08:29:58;42.80;;;25.40;;
3274;SDS011;1649;53.672;10.064;2022-10-15T08:32:24;41.23;;;24.03;;
3274;SDS011;1649;53.672;10.064;2022-10-15T08:34:49;41.27;;;23.80;;
3274;SDS011;1649;53.672;10.064;2022-10-15T08:37:15;33.53;;;22.33;;
3274;SDS011;1649;53.672;10.064;2022-10-15T08:39:40;41.27;;;22.20;;
3274;SDS011;1649;53.672;10.064;2022-10-15T08:42:10;40.07;;;21.97;;
3274;SDS011;1649;53.672;10.064;2022-10-15T08:44:45;38.60;;;23.27;;
3274;SDS011;1649;53.672;10.064;2022-10-15T08:49:52;37.20;;;22.17;;
3274;SDS011;1649;53.672;10.064;2022-10-15T08:54:50;39.37;;;21.30;;
3274;SDS011;1649;53.672;10.064;2022-10-15T09:03:10;33.50;;;19.77;;
3274;SDS011;1649;53.672;10.064;2022-10-15T09:05:52;32.90;;;19.07;;
3274;SDS011;1649;53.672;10.064;2022-10-15T09:08:34;34.40;;;19.87;;
3274;SDS011;1649;53.672;10.064;2022-10-15T09:11:31;33.13;;;19.83;;
3274;SDS011;1649;53.672;10.064;2022-10-15T09:14:03;27.23;;;16.90;;
3274;SDS011;1649;53.672;10.064;2022-10-15T09:16:36;29.13;;;17.90;;
3274;SDS011;1649;53.672;10.064;2022-10-15T09:19:05;28.00;;;17.47;;
3274;SDS011;1649;53.672;10.064;2022-10-15T09:21:39;29.30;;;18.13;;
3274;SDS011;1649;53.672;10.064;2022-10-15T09:24:08;28.73;;;17.27;;
3274;SDS011;1649;53.672;10.064;2022-10-15T09:26:45;29.00;;;19.00;;
3274;SDS011;1649;53.672;10.064;2022-10-15T09:29:21;32.93;;;18.97;;
3274;SDS011;1649;53.672;10.064;2022-10-15T09:34:40;27.37;;;17.33;;
3274;SDS011;1649;53.672;10.064;2022-10-15T09:38:16;30.40;;;16.67;;
3274;SDS011;1649;53.672;10.064;2022-10-15T09:40:48;27.70;;;17.00;;
3274;SDS011;1649;53.672;10.064;2022-10-15T09:43:40;29.10;;;17.63;;
3274;SDS011;1649;53.672;10.064;2022-10-15T09:46:08;27.67;;;18.17;;
3274;SDS011;1649;53.672;10.064;2022-10-15T09:48:42;29.07;;;17.00;;
3274;SDS011;1649;53.672;10.064;2022-10-15T09:51:25;32.67;;;17.57;;
3274;SDS011;1649;53.672;10.064;2022-10-15T09:54:00;29.50;;;17.17;;
3274;SDS011;1649;53.672;10.064;2022-10-15T09:56:43;27.63;;;17.07;;
3274;SDS011;1649;53.672;10.064;2022-10-15T09:59:15;26.73;;;17.00;;
3274;SDS011;1649;53.672;10.064;2022-10-15T10:01:54;26.40;;;15.30;;
3274;SDS011;1649;53.672;10.064;2022-10-15T10:04:29;28.17;;;16.83;;
3274;SDS011;1649;53.672;10.064;2022-10-15T10:06:58;27.37;;;16.93;;
3274;SDS011;1649;53.672;10.064;2022-10-15T10:09:36;23.50;;;14.93;;
3274;SDS011;1649;53.672;10.064;2022-10-15T10:12:19;24.27;;;15.80;;
3274;SDS011;1649;53.672;10.064;2022-10-15T10:14:52;22.27;;;14.23;;
3274;SDS011;1649;53.672;10.064;2022-10-15T10:17:21;24.10;;;14.83;;
3274;SDS011;1649;53.672;10.064;2022-10-15T10:22:51;21.60;;;13.63;;
3274;SDS011;1649;53.672;10.064;2022-10-15T10:28:12;26.00;;;16.03;;
3274;SDS011;1649;53.672;10.064;2022-10-15T10:30:58;22.07;;;13.67;;
3274;SDS011;1649;53.672;10.064;2022-10-15T10:33:34;22.90;;;14.57;;
3274;SDS011;1649;53.672;10.064;2022-10-15T10:36:04;28.33;;;14.87;;
3274;SDS011;1649;53.672;10.064;2022-10-15T10:38:35;20.53;;;13.33;;
3274;SDS011;1649;53.672;10.064;2022-10-15T10:41:04;24.03;;;14.33;;
3274;SDS011;1649;53.672;10.064;2022-10-15T10:43:33;22.93;;;14.07;;
3274;SDS011;1649;53.672;10.064;2022-10-15T10:48:45;23.23;;;13.23;;
3274;SDS011;1649;53.672;10.064;2022-10-15T10:53:47;22.73;;;12.60;;
3274;SDS011;1649;53.672;10.064;2022-10-15T10:56:25;21.67;;;13.10;;
3274;SDS011;1649;53.672;10.064;2022-10-15T10:59:01;19.97;;;12.20;;
3274;SDS011;1649;53.672;10.064;2022-10-15T11:01:34;18.90;;;11.23;;
3274;SDS011;1649;53.672;10.064;2022-10-15T11:03:59;18.10;;;11.37;;
3274;SDS011;1649;53.672;10.064;2022-10-15T11:19:50;17.67;;;10.57;;
3274;SDS011;1649;53.672;10.064;2022-10-15T11:25:16;17.40;;;9.90;;
3274;SDS011;1649;53.672;10.064;2022-10-15T11:41:54;14.60;;;9.80;;
3274;SDS011;1649;53.672;10.064;2022-10-15T11:55:19;10.87;;;5.97;;
3274;SDS011;1649;53.672;10.064;2022-10-15T11:57:49;9.93;;;5.60;;
3274;SDS011;1649;53.672;10.064;2022-10-15T12:00:22;10.70;;;5.47;;
3274;SDS011;1649;53.672;10.064;2022-10-15T12:02:51;10.90;;;5.60;;
3274;SDS011;1649;53.672;10.064;2022-10-15T12:05:20;11.77;;;5.40;;
3274;SDS011;1649;53.672;10.064;2022-10-15T12:07:53;8.40;;;4.90;;
3274;SDS011;1649;53.672;10.064;2022-10-15T12:15:47;9.03;;;4.40;;
3274;SDS011;1649;53.672;10.064;2022-10-15T12:18:35;9.40;;;4.23;;
3274;SDS011;1649;53.672;10.064;2022-10-15T12:21:03;10.60;;;4.37;;
3274;SDS011;1649;53.672;10.064;2022-10-15T12:23:48;9.00;;;4.30;;
3274;SDS011;1649;53.672;10.064;2022-10-15T12:26:32;9.13;;;4.13;;
3274;SDS011;1649;53.672;10.064;2022-10-15T12:29:03;9.80;;;3.70;;
3274;SDS011;1649;53.672;10.064;2022-10-15T12:31:49;8.03;;;3.87;;
3274;SDS011;1649;53.672;10.064;2022-10-15T12:34:23;9.93;;;4.47;;
3274;SDS011;1649;53.672;10.064;2022-10-15T12:37:05;8.63;;;3.90;;
3274;SDS011;1649;53.672;10.064;2022-10-15T12:39:40;6.30;;;3.33;;
3274;SDS011;1649;53.672;10.064;2022-10-15T12:42:25;9.00;;;3.60;;
3274;SDS011;1649;53.672;10.064;2022-10-15T12:44:58;5.57;;;3.20;;
3274;SDS011;1649;53.672;10.064;2022-10-15T12:50:18;7.10;;;3.50;;
3274;SDS011;1649;53.672;10.064;2022-10-15T12:52:56;6.00;;;3.50;;
3274;SDS011;1649;53.672;10.064;2022-10-15T12:55:25;7.70;;;3.57;;
3274;SDS011;1649;53.672;10.064;2022-10-15T12:57:58;6.13;;;3.40;;
3274;SDS011;1649;53.672;10.064;2022-10-15T13:02:52;8.60;;;3.63;;
3274;SDS011;1649;53.672;10.064;2022-10-15T13:05:26;7.37;;;3.60;;
3274;SDS011;1649;53.672;10.064;2022-10-15T13:07:53;8.30;;;4.10;;
3274;SDS011;1649;53.672;10.064;2022-10-15T13:10:37;9.10;;;3.90;;
3274;SDS011;1649;53.672;10.064;2022-10-15T13:13:14;7.40;;;3.87;;
3274;SDS011;1649;53.672;10.064;2022-10-15T13:15:48;7.80;;;3.63;;
3274;SDS011;1649;53.672;10.064;2022-10-15T13:18:15;7.60;;;3.93;;
3274;SDS011;1649;53.672;10.064;2022-10-15T13:20:42;10.30;;;4.50;;
3274;SDS011;1649;53.672;10.064;2022-10-15T13:23:30;8.53;;;4.70;;
3274;SDS011;1649;53.672;10.064;2022-10-15T13:26:15;7.83;;;4.10;;
3274;SDS011;1649;53.672;10.064;2022-10-15T13:28:44;8.07;;;4.00;;
3274;SDS011;1649;53.672;10.064;2022-10-15T13:31:12;8.30;;;4.00;;
3274;SDS011;1649;53.672;10.064;2022-10-15T13:33:51;7.77;;;4.53;;
3274;SDS011;1649;53.672;10.064;2022-10-15T13:36:22;8.90;;;4.50;;
3274;SDS011;1649;53.672;10.064;2022-10-15T13:39:03;8.93;;;4.43;;
3274;SDS011;1649;53.672;10.064;2022-10-15T13:41:35;10.00;;;4.43;;
3274;SDS011;1649;53.672;10.064;2022-10-15T13:44:04;7.43;;;4.23;;
3274;SDS011;1649;53.672;10.064;2022-10-15T13:46:30;11.90;;;5.97;;
3274;SDS011;1649;53.672;10.064;2022-10-15T13:49:00;11.50;;;5.20;;
3274;SDS011;1649;53.672;10.064;2022-10-15T13:51:38;8.33;;;4.53;;
3274;SDS011;1649;53.672;10.064;2022-10-15T13:54:29;8.00;;;5.00;;
3274;SDS011;1649;53.672;10.064;2022-10-15T13:56:55;10.60;;;5.50;;
3274;SDS011;1649;53.672;10.064;2022-10-15T13:59:23;10.33;;;4.67;;
3274;SDS011;1649;53.672;10.064;2022-10-15T14:01:52;8.33;;;5.10;;
3274;SDS011;1649;53.672;10.064;2022-10-15T14:04:24;10.53;;;5.53;;
3274;SDS011;1649;53.672;10.064;2022-10-15T14:06:55;8.10;;;5.17;;
3274;SDS011;1649;53.672;10.064;2022-10-15T14:09:26;9.00;;;4.77;;
3274;SDS011;1649;53.672;10.064;2022-10-15T14:11:53;11.27;;;7.10;;
3274;SDS011;1649;53.672;10.064;2022-10-15T14:16:59;12.90;;;7.27;;
3274;SDS011;1649;53.672;10.064;2022-10-15T14:19:29;10.80;;;6.00;;
3274;SDS011;1649;53.672;10.064;2022-10-15T14:21:58;13.70;;;7.80;;
3274;SDS011;1649;53.672;10.064;2022-10-15T14:27:13;13.50;;;8.90;;
3274;SDS011;1649;53.672;10.064;2022-10-15T14:29:42;15.77;;;10.23;;
3274;SDS011;1649;53.672;10.064;2022-10-15T14:32:23;14.60;;;9.67;;
3274;SDS011;1649;53.672;10.064;2022-10-15T14:34:58;13.50;;;8.87;;
3274;SDS011;1649;53.672;10.064;2022-10-15T14:37:36;12.47;;;8.23;;
3274;SDS011;1649;53.672;10.064;2022-10-15T14:42:32;12.90;;;9.40;;
3274;SDS011;1649;53.672;10.064;2022-10-15T14:44:58;15.50;;;9.60;;
3274;SDS011;1649;53.672;10.064;2022-10-15T14:47:55;14.03;;;9.70;;
3274;SDS011;1649;53.672;10.064;2022-10-15T14:50:30;14.13;;;10.40;;
3274;SDS011;1649;53.672;10.064;2022-10-15T14:52:58;14.10;;;10.00;;
3274;SDS011;1649;53.672;10.064;2022-10-15T14:55:30;14.20;;;9.90;;
3274;SDS011;1649;53.672;10.064;2022-10-15T14:58:06;14.50;;;9.70;;
3274;SDS011;1649;53.672;10.064;2022-10-15T15:00:37;14.70;;;10.00;;
3274;SDS011;1649;53.672;10.064;2022-10-15T15:03:06;15.13;;;10.20;;
3274;SDS011;1649;53.672;10.064;2022-10-15T15:06:10;15.73;;;11.40;;
3274;SDS011;1649;53.672;10.064;2022-10-15T15:08:28;16.20;;;11.50;;
3274;SDS011;1649;53.672;10.064;2022-10-15T15:10:54;16.23;;;12.30;;
3274;SDS011;1649;53.672;10.064;2022-10-15T15:13:22;21.07;;;13.60;;
3274;SDS011;1649;53.672;10.064;2022-10-15T15:15:49;19.73;;;14.03;;
3274;SDS011;1649;53.672;10.064;2022-10-15T15:18:15;20.70;;;13.17;;
3274;SDS011;1649;53.672;10.064;2022-10-15T15:20:41;20.33;;;13.70;;
3274;SDS011;1649;53.672;10.064;2022-10-15T15:23:12;17.63;;;13.20;;
3274;SDS011;1649;53.672;10.064;2022-10-15T15:25:43;20.00;;;13.67;;
3274;SDS011;1649;53.672;10.064;2022-10-15T15:28:11;19.10;;;13.43;;
3274;SDS011;1649;53.672;10.064;2022-10-15T15:30:41;17.27;;;12.73;;
3274;SDS011;1649;53.672;10.064;2022-10-15T15:33:12;21.40;;;15.10;;
3274;SDS011;1649;53.672;10.064;2022-10-15T15:35:43;18.10;;;13.23;;
3274;SDS011;1649;53.672;10.064;2022-10-15T15:38:15;19.20;;;13.60;;
3274;SDS011;1649;53.672;10.064;2022-10-15T15:40:41;20.13;;;14.23;;
3274;SDS011;1649;53.672;10.064;2022-10-15T15:43:07;18.57;;;13.20;;
3274;SDS011;1649;53.672;10.064;2022-10-15T15:45:34;19.30;;;13.80;;
3274;SDS011;1649;53.672;10.064;2022-10-15T15:47:59;19.33;;;12.23;;
3274;SDS011;1649;53.672;10.064;2022-10-15T15:50:27;20.30;;;14.90;;
3274;SDS011;1649;53.672;10.064;2022-10-15T15:52:53;19.53;;;14.77;;
3274;SDS011;1649;53.672;10.064;2022-10-15T15:55:19;21.00;;;14.73;;
3274;SDS011;1649;53.672;10.064;2022-10-15T15:57:44;18.80;;;13.60;;
3274;SDS011;1649;53.672;10.064;2022-10-15T16:00:10;18.07;;;13.77;;
3274;SDS011;1649;53.672;10.064;2022-10-15T16:02:36;18.60;;;14.23;;
3274;SDS011;1649;53.672;10.064;2022-10-15T16:05:03;19.03;;;13.90;;
3274;SDS011;1649;53.672;10.064;2022-10-15T16:07:30;20.00;;;14.23;;
3274;SDS011;1649;53.672;10.064;2022-10-15T16:09:56;19.90;;;15.07;;
3274;SDS011;1649;53.672;10.064;2022-10-15T16:12:22;21.03;;;14.10;;
3274;SDS011;1649;53.672;10.064;2022-10-15T16:14:47;21.60;;;14.80;;
3274;SDS011;1649;53.672;10.064;2022-10-15T16:17:13;21.30;;;15.00;;
3274;SDS011;1649;53.672;10.064;2022-10-15T16:19:38;21.40;;;14.97;;
3274;SDS011;1649;53.672;10.064;2022-10-15T16:22:04;21.17;;;15.30;;
3274;SDS011;1649;53.672;10.064;2022-10-15T16:24:29;21.37;;;15.37;;
3274;SDS011;1649;53.672;10.064;2022-10-15T16:26:56;23.03;;;16.00;;
3274;SDS011;1649;53.672;10.064;2022-10-15T16:29:22;21.40;;;15.43;;
3274;SDS011;1649;53.672;10.064;2022-10-15T16:31:47;23.77;;;16.10;;
3274;SDS011;1649;53.672;10.064;2022-10-15T16:34:13;26.50;;;17.53;;
3274;SDS011;1649;53.672;10.064;2022-10-15T16:36:38;24.97;;;18.43;;
3274;SDS011;1649;53.672;10.064;2022-10-15T16:39:04;23.27;;;17.50;;
3274;SDS011;1649;53.672;10.064;2022-10-15T16:41:30;25.60;;;18.53;;
3274;SDS011;1649;53.672;10.064;2022-10-15T16:43:55;30.17;;;20.37;;